createdAt,value
2018-07-24T00:02:09.606Z,75.36
2018-07-24T00:07:14.438Z,76.44
2018-07-24T00:12:19.192Z,75.43
2018-07-24T00:17:23.929Z,75.66
2018-07-24T00:22:28.731Z,77.69
2018-07-24T00:27:33.399Z,77.52
2018-07-24T00:32:38.204Z,77.68
2018-07-24T00:37:42.988Z,78.78
2018-07-24T00:42:47.672Z,79.29
2018-07-24T00:47:52.646Z,79.05
2018-07-24T00:52:57.394Z,79.65
2018-07-24T00:58:02.161Z,79.50
2018-07-24T01:03:07.073Z,79.96
2018-07-24T01:08:11.820Z,80.88
2018-07-24T01:13:16.450Z,81.35
2018-07-24T01:18:21.237Z,81.02
2018-07-24T01:23:26.017Z,81.31
2018-07-24T01:28:30.773Z,82.05
2018-07-24T01:33:35.517Z,81.76
2018-07-24T01:38:40.311Z,83.04
2018-07-24T01:43:45.130Z,83.06
2018-07-24T01:48:49.762Z,83.51
2018-07-24T01:53:54.513Z,83.78
2018-07-24T01:58:59.235Z,83.62
2018-07-24T02:04:03.974Z,83.98
2018-07-24T02:09:10.611Z,83.04
2018-07-24T02:14:15.394Z,83.00
2018-07-24T02:19:20.122Z,82.82
2018-07-24T02:24:24.947Z,83.69
2018-07-24T02:29:29.664Z,84.29
2018-07-24T02:34:34.457Z,83.46
2018-07-24T02:39:39.116Z,84.02
2018-07-24T02:44:43.891Z,85.04
2018-07-24T02:49:48.504Z,85.16
2018-07-24T02:54:53.262Z,84.42
2018-07-24T02:59:58.108Z,85.26
2018-07-24T03:05:02.900Z,85.09
2018-07-24T03:10:07.664Z,86.14
2018-07-24T03:15:12.357Z,86.25
2018-07-24T03:20:17.056Z,85.91
2018-07-24T03:25:22.024Z,85.34
2018-07-24T03:30:26.817Z,85.83
2018-07-24T03:35:31.657Z,86.29
2018-07-24T03:40:36.358Z,86.02
2018-07-24T03:45:41.165Z,85.74
2018-07-24T03:50:45.860Z,84.13
2018-07-24T03:55:50.766Z,84.40
2018-07-24T04:00:55.498Z,84.67
2018-07-24T04:06:00.340Z,84.72
2018-07-24T04:11:05.153Z,83.53
2018-07-24T04:16:10.022Z,79.23
2018-07-24T04:21:15.424Z,74.36
2018-07-24T04:26:20.145Z,72.39
2018-07-24T04:31:24.882Z,68.76
2018-07-24T04:36:29.766Z,67.43
2018-07-24T04:41:34.472Z,65.61
2018-07-24T04:46:39.237Z,65.27
2018-07-24T04:51:43.851Z,61.86
2018-07-24T04:56:48.558Z,58.19
2018-07-24T05:01:53.430Z,57.86
2018-07-24T05:06:58.219Z,58.30
2018-07-24T05:12:03.002Z,57.03
2018-07-24T05:17:07.716Z,57.62
2018-07-24T05:22:12.429Z,55.60
2018-07-24T05:27:17.138Z,56.95
2018-07-24T05:32:21.954Z,54.62
2018-07-24T05:37:26.772Z,54.29
2018-07-24T05:42:31.492Z,52.19
2018-07-24T05:47:36.170Z,53.76
2018-07-24T05:52:40.898Z,51.19
2018-07-24T05:57:45.611Z,53.38
2018-07-24T06:02:50.443Z,52.72
2018-07-24T06:07:55.154Z,52.96
2018-07-24T06:13:00.021Z,54.06
2018-07-24T06:18:04.697Z,52.69
2018-07-24T06:23:09.412Z,49.51
2018-07-24T06:28:14.107Z,50.52
2018-07-24T06:33:18.952Z,51.94
2018-07-24T06:38:23.613Z,53.53
2018-07-24T06:43:28.438Z,50.77
2018-07-24T06:48:33.243Z,51.06
2018-07-24T06:53:38.023Z,49.67
2018-07-24T06:58:42.804Z,48.33
2018-07-24T07:03:47.748Z,49.90
2018-07-24T07:08:54.920Z,50.57
2018-07-24T07:13:59.666Z,52.08
2018-07-24T07:19:04.432Z,49.41
2018-07-24T07:24:09.168Z,47.98
2018-07-24T07:29:13.952Z,45.20
2018-07-24T07:34:18.588Z,42.59
2018-07-24T07:39:23.272Z,42.05
2018-07-24T07:44:28.038Z,41.04
2018-07-24T07:49:32.879Z,39.93
2018-07-24T07:54:37.592Z,40.10
2018-07-24T07:59:42.274Z,39.76
2018-07-24T08:04:46.929Z,40.96
2018-07-24T08:09:51.646Z,40.82
2018-07-24T08:14:56.650Z,39.59
2018-07-24T08:20:01.571Z,40.81
2018-07-24T08:25:06.380Z,40.65
2018-07-24T08:30:11.145Z,39.06
2018-07-24T08:35:15.861Z,40.27
2018-07-24T08:40:20.569Z,39.66
2018-07-24T08:45:25.113Z,38.09
2018-07-24T08:50:29.791Z,38.73
2018-07-24T08:55:34.984Z,38.54
2018-07-24T09:00:39.267Z,38.29
2018-07-24T09:05:44.114Z,36.32
2018-07-24T09:10:48.953Z,37.40
2018-07-24T09:15:53.664Z,36.34
2018-07-24T09:20:58.446Z,36.24
2018-07-24T09:26:03.091Z,37.45
2018-07-24T09:31:07.929Z,34.94
2018-07-24T09:36:12.679Z,35.61
2018-07-24T09:41:17.683Z,33.60
2018-07-24T09:46:22.353Z,33.33
2018-07-24T09:51:27.139Z,32.50
2018-07-24T09:56:31.945Z,31.17
2018-07-24T10:01:36.661Z,30.76
2018-07-24T10:06:41.391Z,31.40
2018-07-24T10:11:46.155Z,31.14
2018-07-24T10:16:50.949Z,31.02
2018-07-24T10:21:55.652Z,30.72
2018-07-24T10:27:00.491Z,29.47
2018-07-24T10:32:05.244Z,29.60
2018-07-24T10:37:21.305Z,29.74
2018-07-24T10:42:26.076Z,28.21
2018-07-24T10:47:30.766Z,28.84
2018-07-24T10:52:35.458Z,27.77
2018-07-24T10:57:40.287Z,27.23
2018-07-24T11:02:45.047Z,28.37
2018-07-24T11:07:49.737Z,27.28
2018-07-24T11:12:54.509Z,29.99
2018-07-24T11:17:59.695Z,29.92
2018-07-24T11:23:04.560Z,27.70
2018-07-24T11:28:09.270Z,27.65
2018-07-24T11:33:14.000Z,27.91
2018-07-24T11:38:18.755Z,26.84
2018-07-24T11:43:23.629Z,27.06
2018-07-24T11:48:28.385Z,26.15
2018-07-24T11:53:33.357Z,26.56
2018-07-24T11:58:38.247Z,26.34
2018-07-24T12:03:42.888Z,27.29
2018-07-24T12:08:47.641Z,26.03
2018-07-24T12:13:52.315Z,27.04
2018-07-24T12:18:56.995Z,27.36
2018-07-24T12:24:01.979Z,26.63
2018-07-24T12:29:06.763Z,27.18
2018-07-24T12:34:11.507Z,25.61
2018-07-24T12:39:16.320Z,26.87
2018-07-24T12:44:20.955Z,25.90
2018-07-24T12:49:25.781Z,26.03
2018-07-24T12:54:30.692Z,26.95
2018-07-24T12:59:36.335Z,26.06
2018-07-24T13:04:41.060Z,26.03
2018-07-24T13:09:45.763Z,25.36
2018-07-24T13:14:50.428Z,25.45
2018-07-24T13:19:55.310Z,25.57
2018-07-24T13:25:00.072Z,24.57
2018-07-24T13:30:05.268Z,24.46
2018-07-24T13:35:10.020Z,23.84
2018-07-24T13:40:14.903Z,23.50
2018-07-24T13:45:19.650Z,24.77
2018-07-24T13:50:24.403Z,25.10
2018-07-24T13:55:29.832Z,25.63
2018-07-24T14:00:34.560Z,24.08
2018-07-24T14:05:39.485Z,23.73
2018-07-24T14:10:44.184Z,23.55
2018-07-24T14:15:48.943Z,22.16
2018-07-24T14:20:53.713Z,23.15
2018-07-24T14:25:58.532Z,23.41
2018-07-24T14:31:03.370Z,23.87
2018-07-24T14:36:08.207Z,24.98
2018-07-24T14:41:12.889Z,23.77
2018-07-24T14:46:17.761Z,24.74
2018-07-24T14:51:22.443Z,24.86
2018-07-24T14:56:27.253Z,23.52
2018-07-24T15:01:32.023Z,24.02
2018-07-24T15:06:36.748Z,23.75
2018-07-24T15:11:41.532Z,22.42
2018-07-24T15:16:46.265Z,24.03
2018-07-24T15:21:50.976Z,22.99
2018-07-24T15:26:55.919Z,24.19
2018-07-24T15:32:00.954Z,26.10
2018-07-24T15:37:05.979Z,25.08
2018-07-24T15:42:10.851Z,24.14
2018-07-24T15:47:15.517Z,23.12
2018-07-24T15:52:20.312Z,24.69
2018-07-24T15:57:25.129Z,23.49
2018-07-24T16:02:29.993Z,23.51
2018-07-24T16:07:34.699Z,23.68
2018-07-24T16:12:39.416Z,23.40
2018-07-24T16:17:44.383Z,23.79
2018-07-24T16:22:49.245Z,24.43
2018-07-24T16:27:54.006Z,24.57
2018-07-24T16:32:58.894Z,23.63
2018-07-24T16:38:03.679Z,23.97
2018-07-24T16:43:08.555Z,24.12
2018-07-24T16:48:13.275Z,24.66
2018-07-24T16:53:18.140Z,24.86
2018-07-24T16:58:22.884Z,26.36
2018-07-24T17:03:27.683Z,26.28
2018-07-24T17:08:32.430Z,26.25
2018-07-24T17:13:37.198Z,27.03
2018-07-24T17:18:42.116Z,26.77
2018-07-24T17:23:46.810Z,25.71
2018-07-24T17:28:51.585Z,26.36
2018-07-24T17:33:56.434Z,26.04
2018-07-24T17:39:01.260Z,28.21
2018-07-24T17:44:06.282Z,30.49
2018-07-24T17:49:11.119Z,32.92
2018-07-24T17:54:15.803Z,32.39
2018-07-24T17:59:20.868Z,33.75
2018-07-24T18:04:25.711Z,34.28
2018-07-24T18:09:30.504Z,35.65
2018-07-24T18:14:35.355Z,35.66
2018-07-24T18:19:40.949Z,39.41
2018-07-24T18:24:46.211Z,38.30
2018-07-24T18:29:51.037Z,38.49
2018-07-24T18:34:56.441Z,40.46
2018-07-24T18:40:01.615Z,42.82
2018-07-24T18:45:06.734Z,43.76
2018-07-24T18:50:24.648Z,44.38
2018-07-24T18:55:29.643Z,45.01
2018-07-24T19:00:38.757Z,46.72
2018-07-24T19:05:43.845Z,48.19
2018-07-24T19:10:48.834Z,49.83
2018-07-24T19:15:53.948Z,50.35
2018-07-24T19:21:00.208Z,51.01
2018-07-24T19:26:05.474Z,49.94
2018-07-24T19:31:10.522Z,48.58
2018-07-24T19:36:15.470Z,49.42
2018-07-24T19:41:20.504Z,49.73
2018-07-24T19:46:26.154Z,51.19
2018-07-24T19:51:31.155Z,52.11
2018-07-24T19:56:37.106Z,51.68
2018-07-24T20:01:42.236Z,51.80
2018-07-24T20:06:47.289Z,53.04
2018-07-24T20:11:52.465Z,54.12
2018-07-24T20:16:57.587Z,52.69
2018-07-24T20:22:02.607Z,55.70
2018-07-24T20:27:07.729Z,55.99
2018-07-24T20:32:12.650Z,54.96
2018-07-24T20:37:17.523Z,55.59
2018-07-24T20:42:22.291Z,54.55
2018-07-24T20:47:27.087Z,54.45
2018-07-24T20:52:31.968Z,53.32
2018-07-24T20:57:36.903Z,54.69
2018-07-24T21:02:41.684Z,56.23
2018-07-24T21:07:46.570Z,57.18
2018-07-24T21:12:51.600Z,55.87
2018-07-24T21:17:56.390Z,55.50
2018-07-24T21:23:01.442Z,54.88
2018-07-24T21:28:06.466Z,56.49
2018-07-24T21:33:11.214Z,57.94
2018-07-24T21:38:16.095Z,58.74
2018-07-24T21:43:20.859Z,59.32
2018-07-24T21:48:25.565Z,59.66
2018-07-24T21:53:30.440Z,59.43
2018-07-24T21:58:35.132Z,57.89
2018-07-24T22:03:39.973Z,57.62
2018-07-24T22:08:44.890Z,57.63
2018-07-24T22:13:49.643Z,58.84
2018-07-24T22:18:54.332Z,58.97
2018-07-24T22:23:59.144Z,59.35
2018-07-24T22:29:04.011Z,57.52
2018-07-24T22:34:14.701Z,58.22
2018-07-24T22:39:20.538Z,58.91
2018-07-24T22:44:34.616Z,59.12
2018-07-24T22:49:41.156Z,57.66
2018-07-24T22:54:45.914Z,59.25
2018-07-24T22:59:50.695Z,59.95
2018-07-24T23:04:55.449Z,60.74
2018-07-24T23:10:00.371Z,61.64
2018-07-24T23:15:06.252Z,59.83
2018-07-24T23:20:11.087Z,63.72
2018-07-24T23:25:15.990Z,64.79
2018-07-24T23:30:20.802Z,64.40
2018-07-24T23:35:25.602Z,63.29
2018-07-24T23:40:30.286Z,62.43
2018-07-24T23:45:35.056Z,63.37
2018-07-24T23:50:39.800Z,64.26
2018-07-24T23:55:44.552Z,64.50
